ENTO/TRF METAR and TAF weather

Enter ICAO airport designator
Station Type Date Time Source
ENTO METAR 2019/02/23 17:50 UTC NOAA

ENTO 231750Z 17005KT 9000 SCT005 03/03 Q1033 TEMPO 4000 BR BKN004


Station Type Date Time Source
ENTO Decoded METAR 2019/02/23 17:50 UTC NOAA

Torp, Norway (ENTO) 59-12N 010-16E 88M
Feb 23, 2019 - 12:50 PM EST / 2019.02.23 1750 UTC
Wind: from the S (170 degrees) at 6 MPH (5 KT):0
Visibility: 5 mile(s):0
Sky conditions: partly cloudy
Temperature: 37 F (3 C)
Dew Point: 37 F (3 C)
Relative Humidity: 100%
Pressure (altimeter): 30.50 in. Hg (1033 hPa)
ob: ENTO 231750Z 17005KT 9000 SCT005 03/03 Q1033 TEMPO 4000 BR BKN004
cycle: 18

Station Type Date Time Source
ENTO TAF 2019/02/23 18:51 UTC NOAA

TAF ENTO 2318/2418 21008KT 9999 FEW005 PROB40 2318/2404 0800 FG VV002
BECMG 2406/2408 27010KT


Example: see airport list